Time;durP1;ratioP1;P1;durP2;ratioP2;P2;SDS_P1;SDS_P2;PMS_P1;PMS_P2;Temp;Humidity;BMP_temperature;BMP_pressure;BME280_temperature;BME280_humidity;BME280_pressure;Samples;Min_cycle;Max_cycle;Signal;HPM_P1;HPM_P2
2024/02/27 00:01:24;;;;;;;;;;;8.80;1.00;;;;;;5081371;28;19919;-81
2024/02/27 00:06:54;;;;;;;;;;;8.50;1.00;;;;;;5084119;28;19972;-81
2024/02/27 00:15:32;;;;;;;;;;;8.40;1.00;;;;;;5094628;28;19958;-81
2024/02/27 00:24:04;;;;;;;;;;;8.30;1.00;;;;;;5094904;28;19915;-82
2024/02/27 00:29:33;;;;;;;;;;;8.20;1.00;;;;;;5083421;28;19939;-82
2024/02/27 00:32:08;;;;;;;;;;;8.20;1.00;;;;;;5094932;28;19967;-82
2024/02/27 00:38:08;;;;;;;;;;;8.20;1.00;;;;;;5094956;28;19918;-82
2024/02/27 00:46:39;;;;;;;;;;;8.20;1.00;;;;;;5078444;28;19920;-82
2024/02/27 00:52:09;;;;;;;;;;;8.20;1.00;;;;;;5074702;28;19915;-82
2024/02/27 00:57:37;;;;;;;;;;;8.20;1.00;;;;;;5094274;28;19930;-82
2024/02/27 01:00:09;;;;;;;;;;;8.20;1.00;;;;;;5076218;28;20428;-82
2024/02/27 01:05:37;;;;;;;;;;;8.10;1.00;;;;;;5094352;28;19916;-82
2024/02/27 01:08:03;;;;;;;;;;;8.10;1.00;;;;;;5093950;28;20267;-76
2024/02/27 01:10:29;;;;;;;;;;;8.10;1.00;;;;;;5094375;28;19925;-76
2024/02/27 01:13:02;;;;;;;;;;;8.10;1.00;;;;;;5080921;28;19954;-76
2024/02/27 01:15:32;;;;;;;;;;;8.10;1.00;;;;;;5094139;28;19912;-76
2024/02/27 01:18:08;;;;;;;;;;;8.00;1.00;;;;;;5081184;28;20001;-76
2024/02/27 01:20:34;;;;;;;;;;;8.00;1.00;;;;;;5092305;28;19908;-75
2024/02/27 01:23:26;;;;;;;;;;;8.00;1.00;;;;;;5088606;28;19919;-82
2024/02/27 01:26:20;;;;;;;;;;;7.90;1.00;;;;;;5094135;28;19957;-82
2024/02/27 01:34:51;;;;;;;;;;;7.90;1.00;;;;;;5098505;28;19915;-82
2024/02/27 01:43:23;;;;;;;;;;;7.90;1.00;;;;;;5097691;28;19919;-82
2024/02/27 01:48:54;;;;;;;;;;;7.90;1.00;;;;;;5073531;28;19923;-82
2024/02/27 01:54:26;;;;;;;;;;;8.00;1.00;;;;;;5077812;28;19970;-74
2024/02/27 01:57:02;;;;;;;;;;;7.90;1.00;;;;;;5083748;28;19920;-74
2024/02/27 01:59:28;;;;;;;;;;;7.90;1.00;;;;;;5097413;28;19912;-75
2024/02/27 02:01:54;;;;;;;;;;;7.90;1.00;;;;;;5097795;28;20365;-75
2024/02/27 02:04:26;;;;;;;;;;;7.90;1.00;;;;;;5097459;28;19912;-75
2024/02/27 02:06:52;;;;;;;;;;;7.90;1.00;;;;;;5097691;28;19912;-75
2024/02/27 02:09:38;;;;;;;;;;;7.90;1.00;;;;;;5097816;28;19912;-75
2024/02/27 02:12:14;;;;;;;;;;;8.00;1.00;;;;;;5097603;28;19961;-75
2024/02/27 02:14:40;;;;;;;;;;;7.90;1.00;;;;;;5097446;28;19908;-76
2024/02/27 02:17:33;;;;;;;;;;;8.00;1.00;;;;;;5097489;28;19940;-75
2024/02/27 02:19:59;;;;;;;;;;;8.00;1.00;;;;;;5077369;28;19909;-75
2024/02/27 02:22:38;;;;;;;;;;;8.00;1.00;;;;;;5094365;28;20370;-77
2024/02/27 02:25:10;;;;;;;;;;;8.00;1.00;;;;;;5097348;28;19999;-75
2024/02/27 02:27:41;;;;;;;;;;;7.90;1.00;;;;;;5097176;28;19965;-75
2024/02/27 02:30:20;;;;;;;;;;;7.90;1.00;;;;;;5097269;28;19909;-75
2024/02/27 02:32:56;;;;;;;;;;;7.90;1.00;;;;;;5096906;28;19915;-76
2024/02/27 02:35:32;;;;;;;;;;;7.90;1.00;;;;;;5097294;28;20399;-75
2024/02/27 02:47:06;;;;;;;;;;;7.70;1.00;;;;;;5081352;28;19923;-82
2024/02/27 02:52:35;;;;;;;;;;;7.70;1.00;;;;;;5096685;28;19919;-77
2024/02/27 02:55:14;;;;;;;;;;;7.70;1.00;;;;;;5078937;28;20006;-75
2024/02/27 02:58:14;;;;;;;;;;;7.70;1.00;;;;;;5096819;28;19912;-75
2024/02/27 03:00:50;;;;;;;;;;;7.60;1.00;;;;;;5096286;28;19919;-76
2024/02/27 03:03:20;;;;;;;;;;;7.60;1.00;;;;;;5093153;28;19916;-75
2024/02/27 03:06:08;;;;;;;;;;;7.50;1.00;;;;;;5096145;28;19916;-75
2024/02/27 03:11:37;;;;;;;;;;;7.50;1.00;;;;;;5096155;28;20003;-82
2024/02/27 03:20:10;;;;;;;;;;;7.30;1.00;;;;;;5087268;28;19930;-81
2024/02/27 03:23:02;;;;;;;;;;;7.30;1.00;;;;;;5082848;28;19912;-81
2024/02/27 03:25:50;;;;;;;;;;;7.20;1.00;;;;;;5095926;28;19997;-81
2024/02/27 03:31:38;;;;;;;;;;;7.10;1.00;;;;;;5086023;28;19919;-81
2024/02/27 03:34:20;;;;;;;;;;;7.10;1.00;;;;;;5088260;28;20389;-83
2024/02/27 03:36:50;;;;;;;;;;;7.10;1.00;;;;;;5085214;28;19973;-81
2024/02/27 03:39:20;;;;;;;;;;;7.10;1.00;;;;;;5078030;28;19912;-75
2024/02/27 03:41:56;;;;;;;;;;;7.10;1.00;;;;;;5094823;28;20387;-75
2024/02/27 03:44:22;;;;;;;;;;;7.10;1.00;;;;;;5095922;28;20375;-75
2024/02/27 03:46:47;;;;;;;;;;;7.00;1.00;;;;;;5095336;28;19916;-75
2024/02/27 03:49:13;;;;;;;;;;;6.90;1.00;;;;;;5083397;28;19923;-75
2024/02/27 04:00:48;;;;;;;;;;;6.80;1.00;;;;;;5075196;28;19950;-82
2024/02/27 04:06:16;;;;;;;;;;;6.80;1.00;;;;;;5094794;28;19962;-82
2024/02/27 04:08:50;;;;;;;;;;;6.80;1.00;;;;;;5077523;28;19916;-76
2024/02/27 04:11:32;;;;;;;;;;;6.80;1.00;;;;;;5095460;28;19908;-76
2024/02/27 04:14:02;;;;;;;;;;;6.80;1.00;;;;;;5095537;28;19938;-75
2024/02/27 04:16:28;;;;;;;;;;;6.80;1.00;;;;;;5075929;28;19919;-75
2024/02/27 04:18:53;;;;;;;;;;;6.80;1.00;;;;;;5074795;28;19991;-75
2024/02/27 04:21:19;;;;;;;;;;;6.80;1.00;;;;;;5074942;28;19908;-76
2024/02/27 04:23:50;;;;;;;;;;;6.80;1.00;;;;;;5075947;28;19944;-76
2024/02/27 04:26:16;;;;;;;;;;;6.80;1.00;;;;;;5095156;28;20415;-75
2024/02/27 04:28:44;;;;;;;;;;;6.80;1.00;;;;;;5094969;28;20204;-76
2024/02/27 04:31:14;;;;;;;;;;;6.70;1.00;;;;;;5094304;28;19957;-75
2024/02/27 04:33:44;;;;;;;;;;;6.70;1.00;;;;;;5094560;28;19912;-75
2024/02/27 04:36:26;;;;;;;;;;;6.70;1.00;;;;;;5095100;28;19958;-76
2024/02/27 04:39:04;;;;;;;;;;;6.60;1.00;;;;;;5089868;28;19958;-77
2024/02/27 04:41:32;;;;;;;;;;;6.60;1.00;;;;;;5091938;28;19908;-76
2024/02/27 04:44:11;;;;;;;;;;;6.60;1.00;;;;;;5094975;28;19919;-76
2024/02/27 04:46:44;;;;;;;;;;;6.60;1.00;;;;;;5090519;28;20004;-75
2024/02/27 04:49:20;;;;;;;;;;;6.50;1.00;;;;;;5095009;28;19912;-75
2024/02/27 04:51:56;;;;;;;;;;;6.40;1.00;;;;;;5094849;28;19908;-75
2024/02/27 05:00:28;;;;;;;;;;;6.40;1.00;;;;;;5093736;28;19935;-82
2024/02/27 05:06:26;;;;;;;;;;;6.40;1.00;;;;;;5094360;28;19974;-81
2024/02/27 05:09:03;;;;;;;;;;;6.30;1.00;;;;;;5094475;28;19916;-77
2024/02/27 05:11:29;;;;;;;;;;;6.30;1.00;;;;;;5081666;28;19940;-76
2024/02/27 05:14:03;;;;;;;;;;;6.20;1.00;;;;;;5094316;28;19908;-76
2024/02/27 05:16:50;;;;;;;;;;;6.20;1.00;;;;;;5094059;28;20013;-76
2024/02/27 05:19:15;;;;;;;;;;;6.20;1.00;;;;;;5090234;28;19912;-75
2024/02/27 05:22:02;;;;;;;;;;;6.20;1.00;;;;;;5084689;28;19916;-76
2024/02/27 05:25:02;;;;;;;;;;;6.30;1.00;;;;;;5094596;28;19916;-76
2024/02/27 05:30:38;;;;;;;;;;;6.30;1.00;;;;;;5092736;28;19946;-76
2024/02/27 05:36:06;;;;;;;;;;;6.30;1.00;;;;;;5090314;28;19920;-78
2024/02/27 05:38:38;;;;;;;;;;;6.30;1.00;;;;;;5084281;28;19920;-77
2024/02/27 05:50:13;;;;;;;;;;;6.20;1.00;;;;;;5093979;28;19939;-82
2024/02/27 05:55:57;;;;;;;;;;;6.10;1.00;;;;;;5094392;28;19919;-84
2024/02/27 06:04:28;;;;;;;;;;;6.10;1.00;;;;;;5093743;28;19939;-82
2024/02/27 06:07:14;;;;;;;;;;;6.20;1.00;;;;;;5075873;28;20359;-82
2024/02/27 06:10:08;;;;;;;;;;;6.20;1.00;;;;;;5093913;28;19943;-76
2024/02/27 06:12:34;;;;;;;;;;;6.20;1.00;;;;;;5090404;28;19955;-76
2024/02/27 06:15:20;;;;;;;;;;;6.20;1.00;;;;;;5097184;28;19908;-77
2024/02/27 06:17:56;;;;;;;;;;;6.20;1.00;;;;;;5097541;28;19916;-76
2024/02/27 06:23:38;;;;;;;;;;;6.10;1.00;;;;;;5097616;28;19953;-79
2024/02/27 06:35:13;;;;;;;;;;;6.00;1.00;;;;;;5096517;28;19944;-83
2024/02/27 06:40:43;;;;;;;;;;;6.10;1.00;;;;;;5097209;28;19955;-82
2024/02/27 06:43:08;;;;;;;;;;;6.10;1.00;;;;;;5096733;28;19921;-82
2024/02/27 06:48:37;;;;;;;;;;;6.10;1.00;;;;;;5094912;28;19927;-80
2024/02/27 06:51:06;;;;;;;;;;;6.10;1.00;;;;;;5097492;28;19912;-80
2024/02/27 06:53:33;;;;;;;;;;;6.20;1.00;;;;;;5092784;28;20716;-81
2024/02/27 06:55:59;;;;;;;;;;;6.20;1.00;;;;;;5093943;28;19916;-80
2024/02/27 06:58:56;;;;;;;;;;;6.20;1.00;;;;;;5095523;28;20358;-79
2024/02/27 07:01:44;;;;;;;;;;;6.20;1.00;;;;;;5095589;28;19916;-79
2024/02/27 07:07:38;;;;;;;;;;;6.30;1.00;;;;;;5095257;28;19931;-79
2024/02/27 07:10:09;;;;;;;;;;;6.30;1.00;;;;;;5077222;28;19918;-80
2024/02/27 07:18:44;;;;;;;;;;;6.30;1.00;;;;;;5088616;28;19915;-82
2024/02/27 07:30:32;;;;;;;;;;;6.60;1.00;;;;;;5092970;28;19939;-84
2024/02/27 07:33:26;;;;;;;;;;;6.60;1.00;;;;;;5093218;28;19912;-80
2024/02/27 07:36:08;;;;;;;;;;;6.70;1.00;;;;;;5076362;28;19919;-81
2024/02/27 07:38:52;;;;;;;;;;;6.70;1.00;;;;;;5094912;28;19912;-79
2024/02/27 07:41:38;;;;;;;;;;;6.80;1.00;;;;;;5087118;28;19934;-80
2024/02/27 07:44:21;;;;;;;;;;;6.90;1.00;;;;;;5094051;28;19919;-79
2024/02/27 07:46:46;;;;;;;;;;;6.90;1.00;;;;;;5075414;28;19916;-85
2024/02/27 07:49:12;;;;;;;;;;;6.90;1.00;;;;;;5076729;28;19919;-79
2024/02/27 07:52:02;;;;;;;;;;;6.90;1.00;;;;;;5084390;28;19918;-80
2024/02/27 07:54:28;;;;;;;;;;;6.90;1.00;;;;;;5073931;28;19916;-80
2024/02/27 07:56:53;;;;;;;;;;;7.00;1.00;;;;;;5094956;28;19931;-80
2024/02/27 07:59:32;;;;;;;;;;;7.00;1.00;;;;;;5094470;28;20015;-80
2024/02/27 08:05:38;;;;;;;;;;;7.00;1.00;;;;;;5088696;28;20001;-80
2024/02/27 08:08:38;;;;;;;;;;;7.10;1.00;;;;;;5093067;28;19916;-79
2024/02/27 08:14:07;;;;;;;;;;;7.20;1.00;;;;;;5090495;28;19916;-82
2024/02/27 08:16:45;;;;;;;;;;;7.30;1.00;;;;;;5075995;28;19916;-82
2024/02/27 08:19:26;;;;;;;;;;;7.30;1.00;;;;;;5094404;28;20002;-82
2024/02/27 08:22:12;;;;;;;;;;;7.40;1.00;;;;;;5094552;28;20279;-81
2024/02/27 08:27:38;;;;;;;;;;;7.40;1.00;;;;;;5093438;28;19965;-76
2024/02/27 08:30:08;;;;;;;;;;;7.50;1.00;;;;;;5084415;28;20025;-80
2024/02/27 08:33:08;;;;;;;;;;;7.60;1.00;;;;;;5094330;28;19916;-77
2024/02/27 08:35:56;;;;;;;;;;;7.70;1.00;;;;;;5093899;28;19908;-78
2024/02/27 08:38:26;;;;;;;;;;;7.80;1.00;;;;;;5093263;28;19912;-76
2024/02/27 08:41:02;;;;;;;;;;;7.90;1.00;;;;;;5093727;28;19912;-79
2024/02/27 08:43:44;;;;;;;;;;;8.00;1.00;;;;;;5091343;28;20279;-79
2024/02/27 08:46:18;;;;;;;;;;;8.10;1.00;;;;;;5093382;28;19922;-77
2024/02/27 08:49:08;;;;;;;;;;;8.20;1.00;;;;;;5101151;28;19912;-80
2024/02/27 08:51:51;;;;;;;;;;;8.20;1.00;;;;;;5093339;28;19912;-80
2024/02/27 08:54:26;;;;;;;;;;;8.30;1.00;;;;;;5086683;28;19920;-79
2024/02/27 08:57:03;;;;;;;;;;;8.40;1.00;;;;;;5094355;28;19912;-77
2024/02/27 08:59:39;;;;;;;;;;;8.50;1.00;;;;;;5090478;28;19909;-81
2024/02/27 09:02:20;;;;;;;;;;;8.60;1.00;;;;;;5082844;28;19908;-81
2024/02/27 09:07:49;;;;;;;;;;;8.70;1.00;;;;;;5090645;28;20283;-78
2024/02/27 09:10:26;;;;;;;;;;;8.80;1.00;;;;;;5091751;28;19916;-77
2024/02/27 09:13:08;;;;;;;;;;;8.80;1.00;;;;;;5093986;28;19954;-77
2024/02/27 09:16:08;;;;;;;;;;;8.70;1.00;;;;;;5093138;28;19908;-78
2024/02/27 09:18:40;;;;;;;;;;;8.60;1.00;;;;;;5092891;28;19966;-76
2024/02/27 09:21:38;;;;;;;;;;;8.70;1.00;;;;;;5093763;28;19915;-78
2024/02/27 09:24:08;;;;;;;;;;;8.70;1.00;;;;;;5083936;28;19908;-78
2024/02/27 09:26:34;;;;;;;;;;;8.80;1.00;;;;;;5094077;28;19961;-78
2024/02/27 09:29:09;;;;;;;;;;;8.90;1.00;;;;;;5093816;28;19912;-77
2024/02/27 09:31:34;;;;;;;;;;;9.00;1.00;;;;;;5075171;28;20002;-77
2024/02/27 09:34:02;;;;;;;;;;;9.10;1.00;;;;;;5093419;28;19947;-78
2024/02/27 09:36:39;;;;;;;;;;;9.10;1.00;;;;;;5093023;28;19958;-78
2024/02/27 09:39:06;;;;;;;;;;;9.20;1.00;;;;;;5093718;28;19933;-79
2024/02/27 09:41:56;;;;;;;;;;;9.20;1.00;;;;;;5094169;28;19912;-78
2024/02/27 09:44:39;;;;;;;;;;;9.20;1.00;;;;;;5092916;28;19912;-78
2024/02/27 09:47:38;;;;;;;;;;;9.30;1.00;;;;;;5093560;28;19917;-78
2024/02/27 09:50:21;;;;;;;;;;;9.30;1.00;;;;;;5093707;28;19918;-77
2024/02/27 09:56:14;;;;;;;;;;;9.60;1.00;;;;;;5096228;28;20390;-77
2024/02/27 09:58:56;;;;;;;;;;;9.60;1.00;;;;;;5097889;28;20260;-77
2024/02/27 10:01:41;;;;;;;;;;;9.70;1.00;;;;;;5097079;28;19915;-78
2024/02/27 10:04:22;;;;;;;;;;;9.70;1.00;;;;;;5098538;28;19908;-78
2024/02/27 10:06:48;;;;;;;;;;;9.70;1.00;;;;;;5096981;28;19923;-78
2024/02/27 10:09:15;;;;;;;;;;;9.80;1.00;;;;;;5091055;28;19923;-77
2024/02/27 10:11:56;;;;;;;;;;;9.70;1.00;;;;;;5097457;28;19976;-77
2024/02/27 10:14:37;;;;;;;;;;;9.80;1.00;;;;;;5096607;28;19919;-77
2024/02/27 10:17:21;;;;;;;;;;;9.90;1.00;;;;;;5091223;28;19947;-77
2024/02/27 10:23:03;;;;;;;;;;;10.30;1.00;;;;;;5096261;28;20002;-77
2024/02/27 10:25:38;;;;;;;;;;;10.70;1.00;;;;;;5096315;28;19916;-77
2024/02/27 10:28:09;;;;;;;;;;;10.90;1.00;;;;;;5096632;28;20374;-75
2024/02/27 10:30:38;;;;;;;;;;;10.90;1.00;;;;;;5096259;28;20258;-75
2024/02/27 10:33:07;;;;;;;;;;;11.00;1.00;;;;;;5096582;28;19908;-75
2024/02/27 10:36:03;;;;;;;;;;;10.90;1.00;;;;;;5093673;28;19947;-78
2024/02/27 10:38:50;;;;;;;;;;;10.70;1.00;;;;;;5078282;28;20278;-78
2024/02/27 10:44:22;;;;;;;;;;;10.50;1.00;;;;;;5096579;28;19920;-78
2024/02/27 10:46:58;;;;;;;;;;;10.50;1.00;;;;;;5095566;28;19923;-77
2024/02/27 10:49:50;;;;;;;;;;;10.50;1.00;;;;;;5095531;28;19923;-78
2024/02/27 10:52:38;;;;;;;;;;;10.60;1.00;;;;;;5095760;28;19955;-77
2024/02/27 10:55:26;;;;;;;;;;;10.60;1.00;;;;;;5093231;28;19918;-77
2024/02/27 10:57:59;;;;;;;;;;;10.50;1.00;;;;;;5094773;28;19926;-81
2024/02/27 11:00:28;;;;;;;;;;;10.80;1.00;;;;;;5077323;28;19920;-82
2024/02/27 11:02:57;;;;;;;;;;;10.90;1.00;;;;;;5078028;28;19908;-83
2024/02/27 11:05:42;;;;;;;;;;;11.00;1.00;;;;;;5095687;28;19915;-83
2024/02/27 11:11:26;;;;;;;;;;;11.00;1.00;;;;;;5094880;28;19951;-87
2024/02/27 11:13:58;;;;;;;;;;;11.10;1.00;;;;;;5096107;28;19912;-79
2024/02/27 11:16:42;;;;;;;;;;;11.10;1.00;;;;;;5094921;28;19920;-79
2024/02/27 11:19:38;;;;;;;;;;;11.30;1.00;;;;;;5093853;28;19912;-80
2024/02/27 11:22:09;;;;;;;;;;;11.40;1.00;;;;;;5095854;28;19919;-79
2024/02/27 11:24:39;;;;;;;;;;;11.30;1.00;;;;;;5095441;28;19917;-79
2024/02/27 11:27:04;;;;;;;;;;;11.20;1.00;;;;;;5075708;28;19995;-79
2024/02/27 11:29:39;;;;;;;;;;;11.10;1.00;;;;;;5089471;28;20019;-78
2024/02/27 11:32:09;;;;;;;;;;;11.10;1.00;;;;;;5083707;28;20386;-79
2024/02/27 11:34:39;;;;;;;;;;;11.20;1.00;;;;;;5081879;28;20030;-78
2024/02/27 11:37:32;;;;;;;;;;;11.20;1.00;;;;;;5093523;28;19912;-77
2024/02/27 11:40:12;;;;;;;;;;;11.20;1.00;;;;;;5095549;28;19908;-78
2024/02/27 11:42:57;;;;;;;;;;;11.30;1.00;;;;;;5096009;28;19930;-79
2024/02/27 11:45:26;;;;;;;;;;;11.30;1.00;;;;;;5084257;28;20003;-79
2024/02/27 11:48:09;;;;;;;;;;;11.30;1.00;;;;;;5091106;28;19908;-79
2024/02/27 11:50:39;;;;;;;;;;;11.40;1.00;;;;;;5086463;28;19916;-79
2024/02/27 11:53:20;;;;;;;;;;;11.50;1.00;;;;;;5095532;28;19947;-79
2024/02/27 11:59:26;;;;;;;;;;;11.80;1.00;;;;;;5090202;28;21217;-79
2024/02/27 12:02:16;;;;;;;;;;;11.80;1.00;;;;;;5095146;28;19909;-79
2024/02/27 12:04:56;;;;;;;;;;;11.70;1.00;;;;;;5084255;28;20351;-80
2024/02/27 12:07:29;;;;;;;;;;;11.70;1.00;;;;;;5094907;28;19923;-80
2024/02/27 12:10:10;;;;;;;;;;;11.70;1.00;;;;;;5083643;28;19977;-79
2024/02/27 12:12:39;;;;;;;;;;;11.70;1.00;;;;;;5094364;28;19930;-79
2024/02/27 12:15:09;;;;;;;;;;;11.80;1.00;;;;;;5081603;28;19912;-78
2024/02/27 12:17:39;;;;;;;;;;;11.70;1.00;;;;;;5094529;28;20003;-78
2024/02/27 12:20:09;;;;;;;;;;;12.00;1.00;;;;;;5089309;28;19974;-77
2024/02/27 12:22:35;;;;;;;;;;;12.10;1.00;;;;;;5094967;28;20296;-78
2024/02/27 12:25:09;;;;;;;;;;;12.20;1.00;;;;;;5094660;28;20409;-78
2024/02/27 12:27:36;;;;;;;;;;;12.30;1.00;;;;;;5075075;28;19912;-78
2024/02/27 12:30:10;;;;;;;;;;;12.20;1.00;;;;;;5093983;28;20367;-79
2024/02/27 12:32:45;;;;;;;;;;;12.20;1.00;;;;;;5090425;28;19912;-79
2024/02/27 12:35:38;;;;;;;;;;;12.20;1.00;;;;;;5094584;28;19908;-79
2024/02/27 12:38:09;;;;;;;;;;;12.30;1.00;;;;;;5094504;28;19908;-80
2024/02/27 12:40:38;;;;;;;;;;;12.30;1.00;;;;;;5094469;28;19908;-79
2024/02/27 12:43:09;;;;;;;;;;;12.50;1.00;;;;;;5094007;28;19936;-76
2024/02/27 12:45:38;;;;;;;;;;;12.50;1.00;;;;;;5094351;28;20495;-77
2024/02/27 12:54:11;;;;;;;;;;;12.80;1.00;;;;;;5080407;28;19915;-78
2024/02/27 13:02:46;;;;;;;;;;;12.80;1.00;;;;;;5092135;28;20283;-78
2024/02/27 13:05:14;;;;;;;;;;;12.80;1.00;;;;;;5092557;28;19932;-78
2024/02/27 13:07:57;;;;;;;;;;;12.80;1.00;;;;;;5075684;28;19918;-78
2024/02/27 13:10:56;;;;;;;;;;;12.90;1.00;;;;;;5093551;28;19946;-80
2024/02/27 13:13:50;;;;;;;;;;;13.00;1.00;;;;;;5093745;28;20374;-78
2024/02/27 13:16:33;;;;;;;;;;;13.00;1.00;;;;;;5089956;28;20049;-79
2024/02/27 13:19:09;;;;;;;;;;;12.90;1.00;;;;;;5070612;28;19916;-78
2024/02/27 13:21:55;;;;;;;;;;;12.80;1.00;;;;;;5091850;28;19959;-80
2024/02/27 13:27:33;;;;;;;;;;;12.80;1.00;;;;;;5089140;28;20386;-77
2024/02/27 13:30:09;;;;;;;;;;;12.70;1.00;;;;;;5097642;28;19912;-75
2024/02/27 13:33:08;;;;;;;;;;;12.70;1.00;;;;;;5090684;28;19908;-77
2024/02/27 13:35:45;;;;;;;;;;;12.80;1.00;;;;;;5094427;28;19908;-75
2024/02/27 13:38:10;;;;;;;;;;;13.00;1.00;;;;;;5097356;28;19987;-75
2024/02/27 13:40:38;;;;;;;;;;;13.00;1.00;;;;;;5096642;28;20034;-77
2024/02/27 13:43:38;;;;;;;;;;;13.00;1.00;;;;;;5096876;28;20029;-76
2024/02/27 13:46:09;;;;;;;;;;;13.00;1.00;;;;;;5097084;28;20011;-76
2024/02/27 13:49:10;;;;;;;;;;;13.10;1.00;;;;;;5095804;28;20003;-76
2024/02/27 13:51:39;;;;;;;;;;;13.10;1.00;;;;;;5096940;28;19912;-76
2024/02/27 13:54:09;;;;;;;;;;;13.00;1.00;;;;;;5096814;28;19914;-77
2024/02/27 13:56:34;;;;;;;;;;;12.90;1.00;;;;;;5097154;28;19943;-85
2024/02/27 13:59:32;;;;;;;;;;;12.90;1.00;;;;;;5076276;28;19916;-76
2024/02/27 14:02:04;;;;;;;;;;;12.90;1.00;;;;;;5097126;28;19908;-76
2024/02/27 14:04:29;;;;;;;;;;;12.90;1.00;;;;;;5092503;28;19950;-76
2024/02/27 14:06:55;;;;;;;;;;;12.80;1.00;;;;;;5096597;28;20343;-75
2024/02/27 14:09:21;;;;;;;;;;;12.80;1.00;;;;;;5097502;28;19916;-74
2024/02/27 14:11:57;;;;;;;;;;;12.80;1.00;;;;;;5097482;28;20014;-74
2024/02/27 14:17:44;;;;;;;;;;;13.10;1.00;;;;;;5085227;28;20382;-75
2024/02/27 14:20:32;;;;;;;;;;;13.10;1.00;;;;;;5079538;28;19919;-75
2024/02/27 14:23:09;;;;;;;;;;;13.10;1.00;;;;;;5096073;28;19965;-75
2024/02/27 14:26:09;;;;;;;;;;;13.20;1.00;;;;;;5096990;28;19919;-75
2024/02/27 14:28:38;;;;;;;;;;;13.20;1.00;;;;;;5097002;28;19912;-75
2024/02/27 14:31:09;;;;;;;;;;;13.20;1.00;;;;;;5097586;28;19908;-75
2024/02/27 14:34:08;;;;;;;;;;;13.10;1.00;;;;;;5092123;28;19957;-75
2024/02/27 14:37:09;;;;;;;;;;;12.80;1.00;;;;;;5096737;28;19912;-75
2024/02/27 14:39:38;;;;;;;;;;;12.80;1.00;;;;;;5096969;28;20321;-75
2024/02/27 14:42:09;;;;;;;;;;;12.80;1.00;;;;;;5096699;28;19915;-76
2024/02/27 14:44:39;;;;;;;;;;;12.80;1.00;;;;;;5096792;28;19965;-75
2024/02/27 14:47:09;;;;;;;;;;;12.80;1.00;;;;;;5084833;28;19913;-75
2024/02/27 14:49:51;;;;;;;;;;;12.90;1.00;;;;;;5095872;28;19912;-75
2024/02/27 14:52:16;;;;;;;;;;;13.00;1.00;;;;;;5096517;28;19961;-75
2024/02/27 14:54:43;;;;;;;;;;;13.00;1.00;;;;;;5094363;28;19916;-75
2024/02/27 14:57:14;;;;;;;;;;;13.10;1.00;;;;;;5083101;28;20563;-75
2024/02/27 15:00:09;;;;;;;;;;;13.10;1.00;;;;;;5094175;28;19909;-75
2024/02/27 15:02:39;;;;;;;;;;;13.20;1.00;;;;;;5096423;28;19920;-75
2024/02/27 15:05:27;;;;;;;;;;;13.10;1.00;;;;;;5096312;28;19908;-75
2024/02/27 15:10:58;;;;;;;;;;;12.90;1.00;;;;;;5075749;28;19970;-76
2024/02/27 15:13:39;;;;;;;;;;;12.80;1.00;;;;;;5089914;28;19912;-75
2024/02/27 15:16:14;;;;;;;;;;;12.60;1.00;;;;;;5087356;28;19908;-76
2024/02/27 15:18:51;;;;;;;;;;;12.60;1.00;;;;;;5083810;28;20331;-76
2024/02/27 15:21:21;;;;;;;;;;;12.50;1.00;;;;;;5095667;28;20006;-76
2024/02/27 15:26:57;;;;;;;;;;;12.60;1.00;;;;;;5082178;28;20045;-75
2024/02/27 15:29:39;;;;;;;;;;;12.50;1.00;;;;;;5093172;28;19916;-75
2024/02/27 15:32:09;;;;;;;;;;;12.60;1.00;;;;;;5075518;28;19916;-75
2024/02/27 15:34:39;;;;;;;;;;;12.70;1.00;;;;;;5092566;28;19950;-75
2024/02/27 15:37:09;;;;;;;;;;;12.70;1.00;;;;;;5095880;28;20002;-74
2024/02/27 15:42:44;;;;;;;;;;;12.90;1.00;;;;;;5095613;28;19923;-76
2024/02/27 15:45:39;;;;;;;;;;;13.00;1.00;;;;;;5096017;28;19912;-75
2024/02/27 15:48:09;;;;;;;;;;;13.00;1.00;;;;;;5064447;28;19916;-76
2024/02/27 15:50:34;;;;;;;;;;;13.00;1.00;;;;;;5093350;28;19912;-75
2024/02/27 15:53:03;;;;;;;;;;;13.00;1.00;;;;;;5095498;28;19912;-75
2024/02/27 15:55:45;;;;;;;;;;;13.10;1.00;;;;;;5093967;28;19998;-76
2024/02/27 15:58:21;;;;;;;;;;;13.10;1.00;;;;;;5084031;28;19919;-74
2024/02/27 16:00:57;;;;;;;;;;;13.30;1.00;;;;;;5075126;28;19995;-75
2024/02/27 16:03:37;;;;;;;;;;;13.50;1.00;;;;;;5094855;28;19955;-75
2024/02/27 16:06:09;;;;;;;;;;;13.80;1.00;;;;;;5095380;28;19912;-75
2024/02/27 16:08:39;;;;;;;;;;;14.00;1.00;;;;;;5080796;28;21376;-75
2024/02/27 16:11:09;;;;;;;;;;;14.00;1.00;;;;;;5082633;28;19920;-75
2024/02/27 16:13:39;;;;;;;;;;;14.00;1.00;;;;;;5095246;28;19912;-76
2024/02/27 16:16:09;;;;;;;;;;;14.10;1.00;;;;;;5095689;28;19915;-74
2024/02/27 16:18:39;;;;;;;;;;;14.00;1.00;;;;;;5094779;28;19919;-74
2024/02/27 16:21:38;;;;;;;;;;;13.90;1.00;;;;;;5094935;28;19908;-77
2024/02/27 16:24:21;;;;;;;;;;;13.50;1.00;;;;;;5094606;28;19914;-74
2024/02/27 16:26:55;;;;;;;;;;;13.40;1.00;;;;;;5098161;28;19919;-74
2024/02/27 16:29:21;;;;;;;;;;;13.10;1.00;;;;;;5094793;28;19912;-74
2024/02/27 16:31:57;;;;;;;;;;;12.80;1.00;;;;;;5094251;28;19908;-76
2024/02/27 16:34:39;;;;;;;;;;;12.50;1.00;;;;;;5093802;28;19912;-76
2024/02/27 16:37:06;;;;;;;;;;;12.10;1.00;;;;;;5093874;28;19919;-77
2024/02/27 16:39:33;;;;;;;;;;;11.90;1.00;;;;;;5094047;28;19962;-76
2024/02/27 16:42:04;;;;;;;;;;;11.60;1.00;;;;;;5094431;28;19918;-76
2024/02/27 16:44:29;;;;;;;;;;;11.40;1.00;;;;;;5092246;28;20251;-76
2024/02/27 16:50:26;;;;;;;;;;;11.00;1.00;;;;;;5090024;28;19959;-76
2024/02/27 16:55:55;;;;;;;;;;;10.70;1.00;;;;;;5094285;28;20291;-75
2024/02/27 16:58:21;;;;;;;;;;;10.70;1.00;;;;;;5093883;28;19912;-76
2024/02/27 17:00:47;;;;;;;;;;;10.50;1.00;;;;;;5092930;28;19934;-77
2024/02/27 17:03:28;;;;;;;;;;;10.40;1.00;;;;;;5093878;28;19912;-79
2024/02/27 17:05:56;;;;;;;;;;;10.30;1.00;;;;;;5074136;28;19964;-77
2024/02/27 17:08:22;;;;;;;;;;;10.20;1.00;;;;;;5091401;28;19912;-76
2024/02/27 17:14:15;;;;;;;;;;;10.10;1.00;;;;;;5094076;28;19993;-77
2024/02/27 17:22:46;;;;;;;;;;;9.70;1.00;;;;;;5080593;28;20382;-79
2024/02/27 17:28:15;;;;;;;;;;;9.70;1.00;;;;;;5082093;28;19920;-80
2024/02/27 17:31:15;;;;;;;;;;;9.50;1.00;;;;;;5093688;28;19912;-80
2024/02/27 17:33:45;;;;;;;;;;;9.50;1.00;;;;;;5093809;28;20322;-75
2024/02/27 17:42:16;;;;;;;;;;;9.20;1.00;;;;;;5093854;28;19914;-78
2024/02/27 17:50:48;;;;;;;;;;;9.20;1.00;;;;;;5073630;28;19919;-79
2024/02/27 17:56:16;;;;;;;;;;;9.10;1.00;;;;;;5080895;28;19951;-81
2024/02/27 17:59:15;;;;;;;;;;;9.10;1.00;;;;;;5086070;28;19959;-80
2024/02/27 18:01:51;;;;;;;;;;;9.10;1.00;;;;;;5092980;28;19919;-77
2024/02/27 18:04:21;;;;;;;;;;;9.10;1.00;;;;;;5088776;28;19994;-77
2024/02/27 18:09:49;;;;;;;;;;;9.00;1.00;;;;;;5090613;28;19992;-76
2024/02/27 18:12:27;;;;;;;;;;;9.10;1.00;;;;;;5088730;28;19943;-75
2024/02/27 18:15:23;;;;;;;;;;;9.00;1.00;;;;;;5096778;28;19958;-77
2024/02/27 18:18:09;;;;;;;;;;;9.00;1.00;;;;;;5097174;28;20015;-78
2024/02/27 18:23:37;;;;;;;;;;;8.90;1.00;;;;;;5087896;28;19919;-77
2024/02/27 18:26:22;;;;;;;;;;;8.90;1.00;;;;;;5097016;28;19921;-77
2024/02/27 18:34:53;;;;;;;;;;;8.80;1.00;;;;;;5086778;28;20345;-75
2024/02/27 18:37:19;;;;;;;;;;;8.70;1.00;;;;;;5096475;28;19915;-75
2024/02/27 18:42:48;;;;;;;;;;;8.70;1.00;;;;;;5093864;28;19920;-76
2024/02/27 18:45:28;;;;;;;;;;;8.60;1.00;;;;;;5092048;28;19916;-76
2024/02/27 18:50:58;;;;;;;;;;;8.40;1.00;;;;;;5076427;28;19916;-75
2024/02/27 18:56:26;;;;;;;;;;;8.40;1.00;;;;;;5080513;28;19914;-75
2024/02/27 18:59:21;;;;;;;;;;;8.40;1.00;;;;;;5094302;28;20305;-75
2024/02/27 19:02:03;;;;;;;;;;;8.40;1.00;;;;;;5095625;28;20003;-76
2024/02/27 19:07:33;;;;;;;;;;;8.40;1.00;;;;;;5096333;28;19915;-75
2024/02/27 19:10:15;;;;;;;;;;;8.40;1.00;;;;;;5083309;28;19923;-75
2024/02/27 19:15:44;;;;;;;;;;;8.30;1.00;;;;;;5095051;28;19961;-75
2024/02/27 19:27:27;;;;;;;;;;;8.20;1.00;;;;;;5095770;28;19915;-78
2024/02/27 19:39:03;;;;;;;;;;;8.10;1.00;;;;;;5095465;28;20382;-76
2024/02/27 19:41:29;;;;;;;;;;;8.10;1.00;;;;;;5095413;28;20264;-76
2024/02/27 19:44:03;;;;;;;;;;;8.00;1.00;;;;;;5095462;28;19920;-76
2024/02/27 19:46:51;;;;;;;;;;;7.90;1.00;;;;;;5095846;28;20007;-76
2024/02/27 19:55:22;;;;;;;;;;;8.00;1.00;;;;;;5081890;28;20513;-77
2024/02/27 20:03:54;;;;;;;;;;;7.80;1.00;;;;;;5077511;28;19935;-76
2024/02/27 20:09:22;;;;;;;;;;;7.70;1.00;;;;;;5094832;28;19923;-76
2024/02/27 20:18:09;;;;;;;;;;;7.60;1.00;;;;;;5095184;28;19962;-77
2024/02/27 20:26:41;;;;;;;;;;;7.60;1.00;;;;;;5089985;28;19919;-77
2024/02/27 20:29:07;;;;;;;;;;;7.70;1.00;;;;;;5090419;28;20387;-77
2024/02/27 20:31:33;;;;;;;;;;;7.60;1.00;;;;;;5085500;28;19916;-78
2024/02/27 20:43:33;;;;;;;;;;;7.50;1.00;;;;;;5094304;28;19954;-76
2024/02/27 20:49:03;;;;;;;;;;;7.40;1.00;;;;;;5094849;28;19920;-77
2024/02/27 20:51:51;;;;;;;;;;;7.30;1.00;;;;;;5094378;28;19908;-78
2024/02/27 20:57:27;;;;;;;;;;;7.30;1.00;;;;;;5094389;28;19919;-77
2024/02/27 20:59:57;;;;;;;;;;;7.10;1.00;;;;;;5090002;28;19908;-78
2024/02/27 21:02:33;;;;;;;;;;;7.10;1.00;;;;;;5094454;28;20417;-78
2024/02/27 21:08:09;;;;;;;;;;;7.10;1.00;;;;;;5094073;28;19915;-78
2024/02/27 21:13:46;;;;;;;;;;;7.00;1.00;;;;;;5083142;28;20291;-78